Time;durP1;ratioP1;P1;durP2;ratioP2;P2;SDS_P1;SDS_P2;PMS_P1;PMS_P2;Temp;Humidity;BMP_temperature;BMP_pressure;BME280_temperature;BME280_humidity;BME280_pressure;Samples;Min_cycle;Max_cycle;Signal;HPM_P1;HPM_P2
2022/07/25 00:01:44;;;;;;;7.95;5.60;;;24.70;77.40;;;;;;5035714;28;20494;-88
2022/07/25 00:04:11;;;;;;;7.15;5.60;;;24.70;77.60;;;;;;5053667;28;20029;-89
2022/07/25 00:06:37;;;;;;;7.85;5.68;;;24.70;78.00;;;;;;5052685;28;20029;-88
2022/07/25 00:09:03;;;;;;;9.52;5.75;;;24.70;78.30;;;;;;5053811;28;20029;-88
2022/07/25 00:11:29;;;;;;;6.60;5.43;;;24.50;78.40;;;;;;5036079;28;20047;-88
2022/07/25 00:13:55;;;;;;;8.25;5.80;;;24.50;78.70;;;;;;5036418;28;20474;-89
2022/07/25 00:16:21;;;;;;;8.02;5.75;;;24.30;79.90;;;;;;5057527;28;20025;-89
2022/07/25 00:18:47;;;;;;;8.27;6.15;;;24.40;79.50;;;;;;5039494;28;20036;-88
2022/07/25 00:21:12;;;;;;;6.47;5.50;;;24.40;79.60;;;;;;5039856;28;20029;-89
2022/07/25 00:23:38;;;;;;;6.28;5.22;;;24.50;79.50;;;;;;5039717;28;20115;-88
2022/07/25 00:26:04;;;;;;;6.50;5.30;;;24.50;79.80;;;;;;5039916;28;20033;-88
2022/07/25 00:28:29;;;;;;;8.70;5.65;;;24.40;79.60;;;;;;5040151;28;20371;-88
2022/07/25 00:30:56;;;;;;;7.55;6.13;;;24.40;79.80;;;;;;5036820;28;20032;-88
2022/07/25 00:33:22;;;;;;;8.25;6.18;;;24.40;79.80;;;;;;5037111;28;20076;-89
2022/07/25 00:35:48;;;;;;;7.38;5.90;;;24.40;79.70;;;;;;5035436;28;20084;-88
2022/07/25 00:38:14;;;;;;;8.23;6.00;;;24.40;79.80;;;;;;5037007;28;20038;-88
2022/07/25 00:40:40;;;;;;;6.35;5.38;;;24.30;79.90;;;;;;5036674;28;20026;-88
2022/07/25 00:43:05;;;;;;;6.18;5.07;;;24.30;80.10;;;;;;5019665;28;20371;-88
2022/07/25 00:45:31;;;;;;;6.93;5.53;;;24.20;80.10;;;;;;5037073;28;20037;-88
2022/07/25 00:47:56;;;;;;;8.43;6.15;;;24.20;80.60;;;;;;5035433;28;20026;-88
2022/07/25 00:50:22;;;;;;;7.40;5.60;;;24.10;80.90;;;;;;5019564;28;20021;-88
2022/07/25 00:52:48;;;;;;;10.20;6.18;;;24.10;81.20;;;;;;5018890;28;20021;-88
2022/07/25 00:55:14;;;;;;;7.97;6.00;;;24.00;81.50;;;;;;5019221;28;20450;-88
2022/07/25 00:57:39;;;;;;;9.57;6.63;;;23.80;81.90;;;;;;5036641;28;20025;-88
2022/07/25 01:00:08;;;;;;;7.95;5.20;;;23.80;82.50;;;;;;5018707;28;20113;-88
2022/07/25 01:02:33;;;;;;;7.43;5.60;;;23.80;82.90;;;;;;5035906;28;20033;-89
2022/07/25 01:04:59;;;;;;;8.85;6.13;;;23.80;83.20;;;;;;5019073;28;20042;-88
2022/07/25 01:07:25;;;;;;;7.47;6.00;;;23.80;83.40;;;;;;5036718;28;20040;-88
2022/07/25 01:09:51;;;;;;;6.85;6.05;;;23.70;83.50;;;;;;5018731;28;20128;-89
2022/07/25 01:12:17;;;;;;;9.00;5.97;;;23.70;83.80;;;;;;5035551;28;20111;-88
2022/07/25 01:14:42;;;;;;;7.47;5.57;;;23.70;84.20;;;;;;5036347;28;20455;-88
2022/07/25 01:17:08;;;;;;;8.65;5.70;;;23.70;84.30;;;;;;5019069;28;20030;-88
2022/07/25 01:19:34;;;;;;;8.55;6.03;;;23.80;84.40;;;;;;5019032;28;20433;-88
2022/07/25 01:21:59;;;;;;;7.00;6.05;;;23.70;84.30;;;;;;5018481;28;20060;-88
2022/07/25 01:24:25;;;;;;;8.27;6.10;;;23.70;84.40;;;;;;5018996;28;20079;-88
2022/07/25 01:26:51;;;;;;;9.00;6.07;;;23.70;84.90;;;;;;5020680;28;20144;-88
2022/07/25 01:29:17;;;;;;;8.95;6.15;;;23.70;85.00;;;;;;5056282;28;20068;-88
2022/07/25 01:31:42;;;;;;;8.55;5.93;;;23.60;85.20;;;;;;5055980;28;20028;-88
2022/07/25 01:34:08;;;;;;;10.43;6.20;;;23.60;85.30;;;;;;5056276;28;20021;-88
2022/07/25 01:36:34;;;;;;;7.00;6.00;;;23.50;85.50;;;;;;5055861;28;20041;-88
2022/07/25 01:39:00;;;;;;;8.27;6.25;;;23.50;85.70;;;;;;5054445;28;20033;-88
2022/07/25 01:41:26;;;;;;;7.43;6.30;;;23.50;85.90;;;;;;5038203;28;20025;-88
2022/07/25 01:43:51;;;;;;;7.15;5.82;;;23.50;85.90;;;;;;5037776;28;20037;-88
2022/07/25 01:46:17;;;;;;;9.80;5.75;;;23.60;86.10;;;;;;5056141;28;20036;-88
2022/07/25 01:48:43;;;;;;;8.75;5.88;;;23.50;86.20;;;;;;5055917;28;20107;-88
2022/07/25 01:51:11;;;;;;;9.15;6.38;;;23.50;86.30;;;;;;5055333;28;20030;-88
2022/07/25 01:53:37;;;;;;;7.72;6.30;;;23.50;86.50;;;;;;5055910;28;20074;-88
2022/07/25 01:56:04;;;;;;;8.23;6.00;;;23.50;86.50;;;;;;5055238;28;20041;-88
2022/07/25 01:58:30;;;;;;;7.25;6.15;;;23.40;86.60;;;;;;5055482;28;20025;-88
2022/07/25 02:00:55;;;;;;;8.63;5.90;;;23.40;86.70;;;;;;5041041;28;20025;-88
2022/07/25 02:03:30;;;;;;;7.47;5.72;;;23.30;86.90;;;;;;5075182;28;20063;-88
2022/07/25 02:06:03;;;;;;;8.43;6.53;;;23.40;86.70;;;;;;5073616;28;20044;-88
2022/07/25 02:08:29;;;;;;;8.50;6.47;;;23.40;87.00;;;;;;5074448;28;20481;-88
2022/07/25 02:10:56;;;;;;;8.60;5.85;;;23.20;87.40;;;;;;5075001;28;20028;-88
2022/07/25 02:13:22;;;;;;;8.27;5.70;;;23.20;87.60;;;;;;5075449;28;20387;-88
2022/07/25 02:15:47;;;;;;;8.15;5.88;;;23.20;88.00;;;;;;5074011;28;20033;-88
2022/07/25 02:18:13;;;;;;;7.20;5.82;;;23.20;88.20;;;;;;5074179;28;20025;-88
2022/07/25 02:20:39;;;;;;;6.80;6.00;;;23.20;88.30;;;;;;5074180;28;20373;-88
2022/07/25 02:23:05;;;;;;;7.30;6.03;;;23.20;88.50;;;;;;5073999;28;20572;-88
2022/07/25 02:25:31;;;;;;;8.30;5.72;;;23.10;88.90;;;;;;5075407;28;20064;-88
2022/07/25 02:27:57;;;;;;;7.78;6.50;;;23.00;89.30;;;;;;5073664;28;20067;-88
2022/07/25 02:30:23;;;;;;;7.13;5.85;;;22.90;89.90;;;;;;5075152;28;20458;-88
2022/07/25 02:32:48;;;;;;;8.05;6.05;;;22.90;90.10;;;;;;5073862;28;20115;-88
2022/07/25 02:35:14;;;;;;;8.75;6.20;;;22.90;90.10;;;;;;5073803;28;20086;-88
2022/07/25 02:37:40;;;;;;;8.98;6.13;;;22.90;90.30;;;;;;5075023;28;20050;-87
2022/07/25 02:40:06;;;;;;;9.48;6.97;;;22.90;90.30;;;;;;5073199;28;20132;-88
2022/07/25 02:42:32;;;;;;;8.52;6.50;;;22.90;90.40;;;;;;5073542;28;20537;-87
2022/07/25 02:44:58;;;;;;;7.75;5.90;;;22.80;90.50;;;;;;5073298;28;20056;-88
2022/07/25 02:47:23;;;;;;;8.05;6.40;;;22.90;90.70;;;;;;5073352;28;20029;-88
2022/07/25 02:49:49;;;;;;;8.52;6.13;;;22.70;90.80;;;;;;5073132;28;20477;-88
2022/07/25 02:52:14;;;;;;;8.68;6.70;;;22.70;91.00;;;;;;5074587;28;20103;-88
2022/07/25 02:54:40;;;;;;;8.93;6.20;;;22.50;91.40;;;;;;5073374;28;20039;-88
2022/07/25 02:57:06;;;;;;;9.13;6.55;;;22.40;91.70;;;;;;5072958;28;20504;-88
2022/07/25 02:59:31;;;;;;;8.55;6.75;;;22.50;91.70;;;;;;5073405;28;20046;-87
2022/07/25 03:01:57;;;;;;;9.57;6.50;;;22.50;91.70;;;;;;5072914;28;20461;-88
2022/07/25 03:04:22;;;;;;;11.18;6.45;;;22.50;91.70;;;;;;5073329;28;20052;-87
2022/07/25 03:06:48;;;;;;;8.70;6.68;;;22.50;91.80;;;;;;5073114;28;20362;-88
2022/07/25 03:09:14;;;;;;;10.18;6.32;;;22.50;91.90;;;;;;5074017;28;20037;-88
2022/07/25 03:11:39;;;;;;;8.23;6.32;;;22.50;91.90;;;;;;5073359;28;20462;-88
2022/07/25 03:14:07;;;;;;;9.07;6.40;;;22.50;92.00;;;;;;5073216;28;20025;-88
2022/07/25 03:16:33;;;;;;;9.25;6.65;;;22.50;92.00;;;;;;5074054;28;20063;-88
2022/07/25 03:18:58;;;;;;;7.90;6.57;;;22.50;92.10;;;;;;5073559;28;20477;-88
2022/07/25 03:21:24;;;;;;;11.50;6.40;;;22.50;92.20;;;;;;5073849;28;20082;-88
2022/07/25 03:23:49;;;;;;;7.43;6.45;;;22.60;92.20;;;;;;5068100;28;20363;-88
2022/07/25 03:26:15;;;;;;;8.13;6.28;;;22.60;92.20;;;;;;5074146;28;20033;-87
2022/07/25 03:28:40;;;;;;;9.40;6.47;;;22.60;92.30;;;;;;5072702;28;20127;-87
2022/07/25 03:31:06;;;;;;;8.70;6.55;;;22.60;92.30;;;;;;5072125;28;20115;-87
2022/07/25 03:33:32;;;;;;;10.10;6.95;;;22.60;92.30;;;;;;5073918;28;20024;-87
2022/07/25 03:35:58;;;;;;;9.70;5.97;;;22.60;92.50;;;;;;5072154;28;20514;-86
2022/07/25 03:38:23;;;;;;;8.85;6.38;;;22.60;92.60;;;;;;5072836;28;20082;-87
2022/07/25 03:40:49;;;;;;;8.23;6.50;;;22.70;92.60;;;;;;5073947;28;20474;-88
2022/07/25 03:43:15;;;;;;;8.88;6.78;;;22.70;92.60;;;;;;5073661;28;20028;-87
2022/07/25 03:45:41;;;;;;;8.38;6.38;;;22.70;92.60;;;;;;5073143;28;20373;-87
2022/07/25 03:48:06;;;;;;;8.48;6.47;;;22.70;92.70;;;;;;5073685;28;20054;-87
2022/07/25 03:50:32;;;;;;;8.48;6.53;;;22.60;92.80;;;;;;5076544;28;20028;-87
2022/07/25 03:52:58;;;;;;;9.45;6.60;;;22.70;92.80;;;;;;5076421;28;20492;-88
2022/07/25 03:55:23;;;;;;;8.52;6.55;;;22.60;92.90;;;;;;5076894;28;20028;-87
2022/07/25 03:57:49;;;;;;;10.05;6.40;;;22.60;93.00;;;;;;5076846;28;20028;-87
2022/07/25 04:00:15;;;;;;;9.60;6.60;;;22.50;93.10;;;;;;5076301;28;20032;-87
2022/07/25 04:02:40;;;;;;;8.25;6.28;;;22.40;93.30;;;;;;5077026;28;20025;-87
2022/07/25 04:05:07;;;;;;;9.15;6.47;;;22.50;93.40;;;;;;5076732;28;20032;-88
2022/07/25 04:07:33;;;;;;;8.32;6.20;;;22.50;93.40;;;;;;5076856;28;20039;-88
2022/07/25 04:09:58;;;;;;;7.93;6.40;;;22.40;93.60;;;;;;5077463;28;20029;-87
2022/07/25 04:12:24;;;;;;;9.15;6.78;;;22.30;93.80;;;;;;5077076;28;20112;-87
2022/07/25 04:14:49;;;;;;;10.95;6.53;;;22.30;94.00;;;;;;5076674;28;20088;-87
2022/07/25 04:17:15;;;;;;;11.02;7.15;;;22.10;94.30;;;;;;5076866;28;20124;-87
2022/07/25 04:19:41;;;;;;;9.60;6.70;;;22.10;94.40;;;;;;5076684;28;20029;-87
2022/07/25 04:22:06;;;;;;;10.98;7.32;;;22.20;94.50;;;;;;5075976;28;20381;-88
2022/07/25 04:24:32;;;;;;;10.07;7.47;;;22.20;94.50;;;;;;5077409;28;20063;-87
2022/07/25 04:26:57;;;;;;;9.20;7.45;;;22.20;94.60;;;;;;5076021;28;20048;-88
2022/07/25 04:29:23;;;;;;;10.25;7.22;;;22.30;94.50;;;;;;5076556;28;20545;-87
2022/07/25 04:31:49;;;;;;;8.40;6.97;;;22.30;94.40;;;;;;5076294;28;20024;-87
2022/07/25 04:34:14;;;;;;;11.98;7.57;;;22.30;94.30;;;;;;5075915;28;20020;-87
2022/07/25 04:36:40;;;;;;;10.55;7.03;;;22.30;94.20;;;;;;5075836;28;20047;-87
2022/07/25 04:39:05;;;;;;;11.02;6.43;;;22.30;94.30;;;;;;5076344;28;20036;-87
2022/07/25 04:41:31;;;;;;;9.63;6.80;;;22.40;94.20;;;;;;5076026;28;20021;-87
2022/07/25 04:43:57;;;;;;;9.32;6.85;;;22.40;94.20;;;;;;5075357;28;20028;-88
2022/07/25 04:46:23;;;;;;;9.75;7.15;;;22.40;94.20;;;;;;5072490;28;20035;-88
2022/07/25 04:48:49;;;;;;;11.38;6.28;;;22.40;94.30;;;;;;5060198;28;20030;-88
2022/07/25 04:51:15;;;;;;;9.13;6.72;;;22.40;94.30;;;;;;5076898;28;20028;-86
2022/07/25 04:53:41;;;;;;;10.50;7.13;;;22.40;94.40;;;;;;5075953;28;20036;-87
2022/07/25 04:56:07;;;;;;;10.55;6.82;;;22.40;94.50;;;;;;5075486;28;20040;-87
2022/07/25 04:58:34;;;;;;;9.90;6.93;;;22.40;94.60;;;;;;5075963;28;20035;-87
2022/07/25 05:00:59;;;;;;;8.77;6.28;;;22.40;94.60;;;;;;5074230;28;20056;-88
2022/07/25 05:03:25;;;;;;;11.13;6.50;;;22.40;94.70;;;;;;5075558;28;20032;-87
2022/07/25 05:05:51;;;;;;;10.55;6.68;;;22.40;94.70;;;;;;5076564;28;20040;-88
2022/07/25 05:08:16;;;;;;;9.15;6.50;;;22.40;94.60;;;;;;5076058;28;20029;-88
2022/07/25 05:10:42;;;;;;;9.38;6.45;;;22.50;94.60;;;;;;5067665;28;20028;-87
2022/07/25 05:13:08;;;;;;;10.13;6.28;;;22.50;94.40;;;;;;5058585;28;20484;-88
2022/07/25 05:15:34;;;;;;;7.78;6.55;;;22.50;94.30;;;;;;5058778;28;20363;-87
2022/07/25 05:18:00;;;;;;;9.77;6.65;;;22.60;94.30;;;;;;5075984;28;20039;-88
2022/07/25 05:20:26;;;;;;;7.90;6.40;;;22.60;94.20;;;;;;5058764;28;20021;-87
2022/07/25 05:22:52;;;;;;;10.15;6.03;;;22.60;94.10;;;;;;5058793;28;20051;-87
2022/07/25 05:25:18;;;;;;;10.35;6.53;;;22.60;94.10;;;;;;5057932;28;20027;-87
2022/07/25 05:27:44;;;;;;;8.80;6.57;;;22.70;94.10;;;;;;5075540;28;20640;-87
2022/07/25 05:30:11;;;;;;;11.57;6.53;;;22.70;94.10;;;;;;5068890;28;20198;-87
2022/07/25 05:32:38;;;;;;;9.57;6.47;;;22.70;94.00;;;;;;5066220;28;20036;-87
2022/07/25 05:35:06;;;;;;;8.50;5.93;;;22.80;93.90;;;;;;5052278;28;20032;-87
2022/07/25 05:37:32;;;;;;;8.43;6.15;;;22.90;93.80;;;;;;5062120;28;20457;-87
2022/07/25 05:39:58;;;;;;;9.40;6.28;;;22.90;93.60;;;;;;5058035;28;20033;-88
2022/07/25 05:42:24;;;;;;;7.72;5.85;;;23.00;93.50;;;;;;5075793;28;20373;-88
2022/07/25 05:44:49;;;;;;;9.93;5.85;;;23.00;93.30;;;;;;5057578;28;20032;-87
2022/07/25 05:47:15;;;;;;;7.07;5.75;;;23.10;93.10;;;;;;5074592;28;20028;-87
2022/07/25 05:49:41;;;;;;;8.38;5.72;;;23.10;92.80;;;;;;5058204;28;20035;-87
2022/07/25 05:52:06;;;;;;;7.85;5.70;;;23.20;92.60;;;;;;5074984;28;20024;-87
2022/07/25 05:54:33;;;;;;;6.95;5.50;;;23.30;92.50;;;;;;5057529;28;20024;-87
2022/07/25 05:56:59;;;;;;;8.82;5.75;;;23.40;92.30;;;;;;5056090;28;20044;-88
2022/07/25 05:59:25;;;;;;;11.63;6.18;;;23.40;92.10;;;;;;5057775;28;20029;-87
2022/07/25 06:01:51;;;;;;;9.77;5.20;;;23.50;92.00;;;;;;5057583;28;20531;-88
2022/07/25 06:04:16;;;;;;;8.70;5.72;;;23.60;91.90;;;;;;5057293;28;20115;-88
2022/07/25 06:06:42;;;;;;;8.38;6.03;;;23.60;91.60;;;;;;5056959;28;20024;-87
2022/07/25 06:09:07;;;;;;;7.88;5.45;;;23.70;91.50;;;;;;5057206;28;20028;-88
2022/07/25 06:11:33;;;;;;;8.73;5.30;;;23.70;91.40;;;;;;5057109;28;20051;-88
2022/07/25 06:13:59;;;;;;;7.82;5.85;;;23.70;91.40;;;;;;5057007;28;20021;-87
2022/07/25 06:16:24;;;;;;;7.40;5.72;;;23.80;91.40;;;;;;5057221;28;20035;-87
2022/07/25 06:18:50;;;;;;;11.52;6.35;;;23.80;91.40;;;;;;5057237;28;20056;-87
2022/07/25 06:21:16;;;;;;;11.77;6.70;;;23.90;91.60;;;;;;5074389;28;20063;-87
2022/07/25 06:23:41;;;;;;;10.38;6.60;;;23.90;91.60;;;;;;5056950;28;20476;-86
2022/07/25 06:26:10;;;;;;;8.68;5.97;;;24.00;91.60;;;;;;5056789;28;20020;-87
2022/07/25 06:28:37;;;;;;;9.25;5.85;;;24.00;91.60;;;;;;5064041;28;20481;-87
2022/07/25 06:31:02;;;;;;;8.13;6.65;;;24.00;91.50;;;;;;5073858;28;20074;-87
2022/07/25 06:33:28;;;;;;;13.63;6.25;;;24.10;91.60;;;;;;5074248;28;20020;-87
2022/07/25 06:35:54;;;;;;;9.25;6.30;;;24.10;91.70;;;;;;5057173;28;20060;-88
2022/07/25 06:38:19;;;;;;;8.63;6.05;;;24.20;91.60;;;;;;5056123;28;20043;-87
2022/07/25 06:40:45;;;;;;;8.88;6.05;;;24.20;91.60;;;;;;5056687;28;20031;-87
2022/07/25 06:43:11;;;;;;;7.55;5.95;;;24.30;91.50;;;;;;5056307;28;20060;-87
2022/07/25 06:45:36;;;;;;;9.65;6.78;;;24.30;91.00;;;;;;5074396;28;20021;-88
2022/07/25 06:48:02;;;;;;;9.52;6.38;;;24.30;90.90;;;;;;5039895;28;20025;-88
2022/07/25 06:50:28;;;;;;;8.85;6.00;;;24.30;90.90;;;;;;5056553;28;20035;-88
2022/07/25 06:52:54;;;;;;;8.50;6.13;;;24.40;90.90;;;;;;5056611;28;20024;-88
2022/07/25 06:55:19;;;;;;;8.57;5.60;;;24.40;90.90;;;;;;5055971;28;20031;-88
2022/07/25 06:57:45;;;;;;;9.38;6.80;;;24.50;91.00;;;;;;5068383;28;20059;-88
2022/07/25 07:00:12;;;;;;;9.02;6.30;;;24.50;90.90;;;;;;5055848;28;20046;-88
2022/07/25 07:02:55;;;;;;;10.07;6.85;;;24.60;90.70;;;;;;5056496;28;20021;-87
2022/07/25 07:05:25;;;;;;;8.95;6.30;;;24.60;90.70;;;;;;5043877;28;20533;-88
2022/07/25 07:07:52;;;;;;;7.20;5.68;;;24.70;90.60;;;;;;5037030;28;20029;-88
2022/07/25 07:10:19;;;;;;;7.68;5.78;;;24.70;90.60;;;;;;5036340;28;20037;-88
2022/07/25 07:12:45;;;;;;;11.25;5.72;;;24.80;90.60;;;;;;5045398;28;20028;-87
2022/07/25 07:15:11;;;;;;;9.15;5.95;;;24.90;90.40;;;;;;5055825;28;20021;-87
2022/07/25 07:17:37;;;;;;;7.95;6.10;;;24.90;90.40;;;;;;5073733;28;20028;-89
2022/07/25 07:20:04;;;;;;;7.45;5.55;;;24.90;90.30;;;;;;5072642;28;20024;-88
2022/07/25 07:22:30;;;;;;;9.48;5.97;;;25.00;90.00;;;;;;5056041;28;20028;-89
2022/07/25 07:24:56;;;;;;;9.70;6.10;;;25.10;90.00;;;;;;5073316;28;20074;-88
2022/07/25 07:27:23;;;;;;;7.28;5.53;;;25.10;90.00;;;;;;5055345;28;20053;-88
2022/07/25 07:29:49;;;;;;;7.85;6.28;;;25.20;90.10;;;;;;5073321;28;20158;-89
2022/07/25 07:32:14;;;;;;;10.32;6.00;;;25.30;90.10;;;;;;5055933;28;20027;-88
2022/07/25 07:34:40;;;;;;;9.27;5.93;;;25.30;90.00;;;;;;5049702;28;20021;-88
2022/07/25 07:37:06;;;;;;;8.43;6.22;;;25.40;90.00;;;;;;5065572;28;20076;-88
2022/07/25 07:39:31;;;;;;;12.65;6.35;;;25.40;89.80;;;;;;5053117;28;20029;-89
2022/07/25 07:41:57;;;;;;;7.88;6.00;;;25.50;89.60;;;;;;5059913;28;20032;-90
2022/07/25 07:44:23;;;;;;;8.15;5.75;;;25.60;89.60;;;;;;5073118;28;20027;-89
2022/07/25 07:46:49;;;;;;;12.30;6.03;;;25.60;89.50;;;;;;5050241;28;20107;-89
2022/07/25 07:49:14;;;;;;;8.02;6.22;;;25.60;89.40;;;;;;5073307;28;20062;-89
2022/07/25 07:51:40;;;;;;;8.80;6.15;;;25.70;89.80;;;;;;5055548;28;20461;-87
2022/07/25 07:56:50;;;;;;;8.73;5.82;;;25.80;88.80;;;;;;5073592;28;20036;-89
2022/07/25 07:59:16;;;;;;;8.10;6.10;;;26.00;88.90;;;;;;5055195;28;20012;-89
2022/07/25 08:01:41;;;;;;;9.93;6.28;;;26.00;88.60;;;;;;5055720;28;20025;-88
2022/07/25 08:04:07;;;;;;;7.70;5.82;;;26.10;88.60;;;;;;5072089;28;20019;-89
2022/07/25 08:06:33;;;;;;;13.15;5.93;;;26.10;88.50;;;;;;5055568;28;20032;-89
2022/07/25 08:08:58;;;;;;;7.93;5.97;;;26.10;88.10;;;;;;5055885;28;20454;-89
2022/07/25 08:11:25;;;;;;;8.85;5.95;;;26.20;88.30;;;;;;5055326;28;20433;-89
2022/07/25 08:13:51;;;;;;;10.32;6.10;;;26.30;88.30;;;;;;5073420;28;20023;-89
2022/07/25 08:16:17;;;;;;;8.25;6.30;;;26.30;87.90;;;;;;5054750;28;20021;-89
2022/07/25 08:18:43;;;;;;;8.43;5.70;;;26.40;87.60;;;;;;5073269;28;20052;-89
2022/07/25 08:21:09;;;;;;;7.45;5.65;;;26.40;87.60;;;;;;5072825;28;20025;-90
2022/07/25 08:23:37;;;;;;;8.13;6.35;;;26.50;86.90;;;;;;5055479;28;20039;-90
2022/07/25 08:26:04;;;;;;;7.43;5.75;;;26.60;86.60;;;;;;5067479;28;20020;-89
2022/07/25 08:28:30;;;;;;;8.77;6.20;;;26.70;86.10;;;;;;5055516;28;20041;-90
2022/07/25 08:30:56;;;;;;;8.23;5.78;;;26.70;85.50;;;;;;5055700;28;20036;-89
2022/07/25 08:33:22;;;;;;;12.18;6.15;;;26.80;85.20;;;;;;5055360;28;20532;-90
2022/07/25 08:35:52;;;;;;;10.32;5.70;;;26.80;84.20;;;;;;5059262;28;20061;-85
2022/07/25 08:38:18;;;;;;;10.23;5.65;;;26.90;84.30;;;;;;5038985;28;20040;-89
2022/07/25 08:40:44;;;;;;;8.18;6.03;;;27.00;83.70;;;;;;5048789;28;20024;-89
2022/07/25 08:43:12;;;;;;;8.35;6.05;;;27.00;83.40;;;;;;5058681;28;20056;-89
2022/07/25 08:45:42;;;;;;;7.93;5.80;;;27.10;83.40;;;;;;5076684;28;20025;-89
2022/07/25 08:48:08;;;;;;;10.90;5.90;;;27.20;83.50;;;;;;5076230;28;20016;-90
2022/07/25 08:50:34;;;;;;;8.57;6.03;;;27.30;82.90;;;;;;5076562;28;20531;-90
2022/07/25 08:52:59;;;;;;;10.32;5.55;;;27.40;82.90;;;;;;5076313;28;20100;-89
2022/07/25 08:55:27;;;;;;;8.05;5.72;;;27.50;82.40;;;;;;5058258;28;20064;-88
2022/07/25 08:57:53;;;;;;;8.63;5.70;;;27.60;81.60;;;;;;5060830;28;20400;-87
2022/07/25 09:00:25;;;;;;;8.65;5.75;;;27.60;81.20;;;;;;5064184;28;20116;-88
2022/07/25 09:03:02;;;;;;;8.00;6.30;;;27.80;80.50;;;;;;5068256;28;20033;-89
2022/07/25 09:05:30;;;;;;;8.00;6.22;;;27.80;79.40;;;;;;5064167;28;20055;-90
2022/07/25 09:07:57;;;;;;;8.52;5.63;;;27.90;80.00;;;;;;5064952;28;20033;-89
2022/07/25 09:10:25;;;;;;;11.85;6.13;;;28.00;79.60;;;;;;5066186;28;20028;-90
2022/07/25 09:12:56;;;;;;;9.48;6.03;;;28.10;78.90;;;;;;5074977;28;20021;-90
2022/07/25 09:15:29;;;;;;;18.63;6.07;;;28.10;78.70;;;;;;5075927;28;20024;-90
2022/07/25 09:17:59;;;;;;;11.85;5.50;;;28.20;78.10;;;;;;5076482;28;20032;-90
2022/07/25 09:20:43;;;;;;;12.60;6.40;;;28.20;78.40;;;;;;5075049;28;20033;-88
2022/07/25 09:23:14;;;;;;;21.55;6.03;;;28.30;77.00;;;;;;5057991;28;20028;-89
2022/07/25 09:25:40;;;;;;;14.85;5.65;;;28.50;77.00;;;;;;5075915;28;20039;-90
2022/07/25 09:28:17;;;;;;;13.23;6.30;;;28.50;77.00;;;;;;5057282;28;20040;-89
2022/07/25 09:30:53;;;;;;;9.05;5.97;;;28.50;76.90;;;;;;5057928;28;20027;-90
2022/07/25 09:33:20;;;;;;;8.65;5.57;;;28.70;75.60;;;;;;5075541;28;20024;-90
2022/07/25 09:35:46;;;;;;;8.90;5.18;;;28.70;75.60;;;;;;5042559;28;20029;-90
2022/07/25 09:38:13;;;;;;;8.13;5.30;;;28.80;75.30;;;;;;5037851;28;20356;-89
2022/07/25 09:40:39;;;;;;;22.67;6.60;;;28.80;75.40;;;;;;5055846;28;20025;-90
2022/07/25 09:43:05;;;;;;;7.95;5.25;;;29.00;74.70;;;;;;5038184;28;20029;-90
2022/07/25 09:45:31;;;;;;;11.18;5.60;;;29.00;74.00;;;;;;5054285;28;20024;-89
2022/07/25 09:48:03;;;;;;;8.80;5.85;;;29.10;74.20;;;;;;5064685;28;20380;-90
2022/07/25 09:50:32;;;;;;;6.65;5.57;;;29.10;74.20;;;;;;5071860;28;20024;-90
2022/07/25 09:53:01;;;;;;;6.50;5.03;;;29.20;71.80;;;;;;5075697;28;20054;-89
2022/07/25 09:55:27;;;;;;;6.90;4.95;;;29.40;70.40;;;;;;5063037;28;20020;-89
2022/07/25 09:57:52;;;;;;;7.00;5.20;;;29.50;70.00;;;;;;5071598;28;20079;-90
2022/07/25 10:00:22;;;;;;;7.05;5.57;;;29.70;69.90;;;;;;5060158;28;20024;-88
2022/07/25 10:02:54;;;;;;;8.97;5.10;;;29.80;69.30;;;;;;5075537;28;20025;-90
2022/07/25 10:05:37;;;;;;;6.57;5.03;;;30.10;68.70;;;;;;5060886;28;20028;-90
2022/07/25 10:08:06;;;;;;;7.40;5.03;;;30.30;66.80;;;;;;5061536;28;20032;-88
2022/07/25 10:10:37;;;;;;;7.95;5.07;;;30.50;66.10;;;;;;5073955;28;20069;-87
2022/07/25 10:13:14;;;;;;;7.13;5.25;;;30.70;64.80;;;;;;5064393;28;20024;-88
2022/07/25 10:15:52;;;;;;;6.15;5.07;;;30.80;62.20;;;;;;5063975;28;20024;-87
2022/07/25 10:18:20;;;;;;;6.93;5.25;;;31.00;62.30;;;;;;5061937;28;20020;-89
2022/07/25 10:20:48;;;;;;;5.82;4.55;;;31.00;62.60;;;;;;5065073;28;20119;-88
2022/07/25 10:23:31;;;;;;;8.98;5.20;;;31.10;62.10;;;;;;5063171;28;20020;-88
2022/07/25 10:26:12;;;;;;;5.80;5.07;;;31.00;61.20;;;;;;5063474;28;20496;-88
2022/07/25 10:28:47;;;;;;;6.20;4.68;;;31.00;62.10;;;;;;5062391;28;20105;-89
2022/07/25 10:31:17;;;;;;;7.35;4.78;;;31.00;62.40;;;;;;5063137;28;20025;-89
2022/07/25 10:33:46;;;;;;;7.60;5.07;;;31.00;62.20;;;;;;5056926;28;20458;-87
2022/07/25 10:36:11;;;;;;;6.07;5.05;;;31.10;62.60;;;;;;5059717;28;20040;-87
2022/07/25 10:38:44;;;;;;;6.38;5.15;;;31.10;62.90;;;;;;5073408;28;20346;-87
2022/07/25 10:41:11;;;;;;;7.45;5.22;;;31.20;63.00;;;;;;5056382;28;20066;-89
2022/07/25 10:43:38;;;;;;;7.32;5.00;;;31.30;63.10;;;;;;5074193;28;20032;-89
2022/07/25 10:46:13;;;;;;;8.20;5.55;;;31.30;62.70;;;;;;5056023;28;20047;-89
2022/07/25 10:48:39;;;;;;;6.13;5.28;;;31.40;61.80;;;;;;5056829;28;20020;-89
2022/07/25 10:51:13;;;;;;;8.50;5.57;;;31.40;61.10;;;;;;5073491;28;20108;-90
2022/07/25 10:53:42;;;;;;;8.30;5.00;;;31.40;60.90;;;;;;5056221;28;20029;-89
2022/07/25 10:56:09;;;;;;;8.02;5.43;;;31.50;61.30;;;;;;5073511;28;20095;-89
2022/07/25 10:58:52;;;;;;;6.13;4.70;;;31.60;61.50;;;;;;5055432;28;20013;-89
2022/07/25 11:01:29;;;;;;;6.72;5.22;;;31.60;61.20;;;;;;5057181;28;20055;-89
2022/07/25 11:04:03;;;;;;;5.95;4.78;;;31.60;61.80;;;;;;5054697;28;20025;-89
2022/07/25 11:06:34;;;;;;;8.55;5.38;;;31.50;61.90;;;;;;5063591;28;20059;-89
2022/07/25 11:09:02;;;;;;;6.22;5.13;;;31.50;61.80;;;;;;5069368;28;20024;-89
2022/07/25 11:11:41;;;;;;;6.20;5.28;;;31.50;61.90;;;;;;5060641;28;20027;-89
2022/07/25 11:14:17;;;;;;;7.22;5.68;;;31.50;61.40;;;;;;5062614;28;20112;-89
2022/07/25 11:16:44;;;;;;;11.63;5.32;;;31.60;60.90;;;;;;5053982;28;20090;-90
2022/07/25 11:19:27;;;;;;;9.48;5.50;;;31.60;61.00;;;;;;5057874;28;20029;-88
2022/07/25 11:21:56;;;;;;;8.32;5.53;;;31.70;61.00;;;;;;5064593;28;20028;-88
2022/07/25 11:24:32;;;;;;;10.50;5.15;;;31.80;60.90;;;;;;5073383;28;20584;-90
2022/07/25 11:26:58;;;;;;;9.68;6.40;;;31.80;59.90;;;;;;5060924;28;20044;-90
2022/07/25 11:29:27;;;;;;;9.52;6.18;;;31.80;59.90;;;;;;5072634;28;20108;-88
2022/07/25 11:31:54;;;;;;;6.43;5.38;;;31.70;59.90;;;;;;5060919;28;20111;-89
2022/07/25 11:34:26;;;;;;;7.47;5.00;;;31.70;60.00;;;;;;5063884;28;20048;-89
2022/07/25 11:36:55;;;;;;;6.50;4.88;;;31.60;60.20;;;;;;5062237;28;20055;-89
2022/07/25 11:39:23;;;;;;;7.03;4.95;;;31.70;60.00;;;;;;5061535;28;20025;-90
2022/07/25 11:41:58;;;;;;;12.40;5.75;;;31.80;59.70;;;;;;5073400;28;20024;-90
2022/07/25 11:44:42;;;;;;;9.93;4.85;;;31.80;59.20;;;;;;5061486;28;20025;-90
2022/07/25 11:47:21;;;;;;;6.93;5.20;;;31.80;59.50;;;;;;5062923;28;20040;-90
2022/07/25 11:49:49;;;;;;;7.00;4.85;;;32.00;59.20;;;;;;5055775;28;20024;-90
2022/07/25 11:52:42;;;;;;;5.07;4.50;;;32.10;59.20;;;;;;5054416;28;20021;-90
2022/07/25 11:55:15;;;;;;;8.68;5.10;;;32.20;58.80;;;;;;5051411;28;20504;-90
2022/07/25 11:57:44;;;;;;;8.18;5.15;;;32.40;58.90;;;;;;5055762;28;20041;-90
2022/07/25 12:00:16;;;;;;;6.82;5.03;;;32.50;58.40;;;;;;5055275;28;20024;-91
2022/07/25 12:02:42;;;;;;;7.60;4.40;;;32.60;58.30;;;;;;5055669;28;20017;-89
2022/07/25 12:05:10;;;;;;;5.80;4.88;;;32.80;58.00;;;;;;5072386;28;20028;-90
2022/07/25 12:07:53;;;;;;;7.63;5.45;;;32.80;57.90;;;;;;5054436;28;20127;-89
2022/07/25 12:10:38;;;;;;;7.55;5.07;;;32.80;57.70;;;;;;5042122;28;20025;-90
2022/07/25 12:13:06;;;;;;;6.65;5.25;;;32.80;57.60;;;;;;5077010;28;20385;-92
2022/07/25 12:15:36;;;;;;;7.53;5.10;;;32.80;58.00;;;;;;5077149;28;20469;-89
2022/07/25 12:18:02;;;;;;;7.28;4.80;;;33.00;57.70;;;;;;5076783;28;20488;-88
2022/07/25 12:20:34;;;;;;;8.80;5.22;;;33.10;57.90;;;;;;5059406;28;20021;-92
2022/07/25 12:23:03;;;;;;;9.38;5.10;;;33.10;57.60;;;;;;5077202;28;20024;-91
2022/07/25 12:25:30;;;;;;;5.80;4.63;;;33.20;57.60;;;;;;5059532;28;20021;-87
2022/07/25 12:27:57;;;;;;;7.32;4.80;;;33.30;57.30;;;;;;5057670;28;20052;-88
2022/07/25 12:30:24;;;;;;;6.20;5.28;;;33.50;56.70;;;;;;5058582;28;20028;-87
2022/07/25 12:32:50;;;;;;;8.82;5.28;;;33.40;56.30;;;;;;5059102;28;20024;-90
2022/07/25 12:35:16;;;;;;;5.03;4.28;;;33.40;55.70;;;;;;5047627;28;20025;-90
2022/07/25 12:37:42;;;;;;;7.78;5.13;;;33.40;56.30;;;;;;5066126;28;20082;-90
2022/07/25 12:40:08;;;;;;;6.65;4.93;;;33.30;56.60;;;;;;5069506;28;20032;-91
2022/07/25 12:42:34;;;;;;;5.68;4.90;;;33.30;56.30;;;;;;5060056;28;20021;-89
2022/07/25 12:45:00;;;;;;;7.18;5.60;;;33.30;56.50;;;;;;5069160;28;20552;-91
2022/07/25 12:47:27;;;;;;;6.07;5.47;;;33.30;56.60;;;;;;5076016;28;20040;-90
2022/07/25 12:49:53;;;;;;;7.18;5.50;;;33.40;56.50;;;;;;5050923;28;20073;-90